sensor_id;sensor_type;location;lat;lon;timestamp;P1;durP1;ratioP1;P2;durP2;ratioP2
18881;SDS011;9573;50.948;11.600;2022-07-29T00:01:48;12.13;;;2.37;;
18881;SDS011;9573;50.948;11.600;2022-07-29T00:04:17;8.20;;;2.10;;
18881;SDS011;9573;50.948;11.600;2022-07-29T00:06:44;11.10;;;2.60;;
18881;SDS011;9573;50.948;11.600;2022-07-29T00:09:11;10.20;;;2.40;;
18881;SDS011;9573;50.948;11.600;2022-07-29T00:11:40;11.00;;;2.40;;
18881;SDS011;9573;50.948;11.600;2022-07-29T00:14:08;14.03;;;2.60;;
18881;SDS011;9573;50.948;11.600;2022-07-29T00:16:35;8.80;;;2.10;;
18881;SDS011;9573;50.948;11.600;2022-07-29T00:19:03;13.87;;;2.40;;
18881;SDS011;9573;50.948;11.600;2022-07-29T00:21:30;6.33;;;2.40;;
18881;SDS011;9573;50.948;11.600;2022-07-29T00:23:57;8.00;;;2.33;;
18881;SDS011;9573;50.948;11.600;2022-07-29T00:26:25;8.23;;;2.40;;
18881;SDS011;9573;50.948;11.600;2022-07-29T00:28:57;7.37;;;2.33;;
18881;SDS011;9573;50.948;11.600;2022-07-29T00:31:25;8.30;;;2.50;;
18881;SDS011;9573;50.948;11.600;2022-07-29T00:33:52;12.07;;;2.60;;
18881;SDS011;9573;50.948;11.600;2022-07-29T00:36:19;9.13;;;2.40;;
18881;SDS011;9573;50.948;11.600;2022-07-29T00:38:46;12.70;;;2.53;;
18881;SDS011;9573;50.948;11.600;2022-07-29T00:41:13;14.17;;;2.70;;
18881;SDS011;9573;50.948;11.600;2022-07-29T00:43:40;10.97;;;2.60;;
18881;SDS011;9573;50.948;11.600;2022-07-29T00:46:09;10.20;;;3.03;;
18881;SDS011;9573;50.948;11.600;2022-07-29T00:48:36;6.50;;;2.60;;
18881;SDS011;9573;50.948;11.600;2022-07-29T00:51:04;6.67;;;2.43;;
18881;SDS011;9573;50.948;11.600;2022-07-29T00:53:33;13.70;;;2.50;;
18881;SDS011;9573;50.948;11.600;2022-07-29T00:56:02;15.13;;;2.70;;
18881;SDS011;9573;50.948;11.600;2022-07-29T00:58:29;10.80;;;2.53;;
18881;SDS011;9573;50.948;11.600;2022-07-29T01:00:57;11.40;;;2.57;;
18881;SDS011;9573;50.948;11.600;2022-07-29T01:03:26;11.63;;;2.70;;
18881;SDS011;9573;50.948;11.600;2022-07-29T01:05:53;13.73;;;2.50;;
18881;SDS011;9573;50.948;11.600;2022-07-29T01:08:21;11.63;;;2.70;;
18881;SDS011;9573;50.948;11.600;2022-07-29T01:10:49;12.43;;;2.50;;
18881;SDS011;9573;50.948;11.600;2022-07-29T01:13:18;13.20;;;2.60;;
18881;SDS011;9573;50.948;11.600;2022-07-29T01:15:49;9.67;;;2.33;;
18881;SDS011;9573;50.948;11.600;2022-07-29T01:18:24;8.40;;;2.53;;
18881;SDS011;9573;50.948;11.600;2022-07-29T01:21:05;5.37;;;2.53;;
18881;SDS011;9573;50.948;11.600;2022-07-29T01:23:52;11.93;;;2.90;;
18881;SDS011;9573;50.948;11.600;2022-07-29T01:26:47;9.57;;;2.40;;
18881;SDS011;9573;50.948;11.600;2022-07-29T01:29:23;11.33;;;2.30;;
18881;SDS011;9573;50.948;11.600;2022-07-29T01:31:54;6.13;;;2.33;;
18881;SDS011;9573;50.948;11.600;2022-07-29T01:34:29;10.40;;;2.50;;
18881;SDS011;9573;50.948;11.600;2022-07-29T01:37:06;11.90;;;2.50;;
18881;SDS011;9573;50.948;11.600;2022-07-29T01:39:38;10.70;;;2.40;;
18881;SDS011;9573;50.948;11.600;2022-07-29T01:42:08;10.77;;;2.43;;
18881;SDS011;9573;50.948;11.600;2022-07-29T01:44:45;11.37;;;2.57;;
18881;SDS011;9573;50.948;11.600;2022-07-29T01:47:22;8.37;;;2.50;;
18881;SDS011;9573;50.948;11.600;2022-07-29T01:49:54;13.00;;;2.60;;
18881;SDS011;9573;50.948;11.600;2022-07-29T01:52:26;10.53;;;2.50;;
18881;SDS011;9573;50.948;11.600;2022-07-29T01:55:02;8.93;;;2.50;;
18881;SDS011;9573;50.948;11.600;2022-07-29T01:57:36;19.77;;;2.90;;
18881;SDS011;9573;50.948;11.600;2022-07-29T02:00:09;12.20;;;2.33;;
18881;SDS011;9573;50.948;11.600;2022-07-29T02:02:37;9.73;;;2.50;;
18881;SDS011;9573;50.948;11.600;2022-07-29T02:05:10;7.07;;;2.50;;
18881;SDS011;9573;50.948;11.600;2022-07-29T02:07:41;17.20;;;3.00;;
18881;SDS011;9573;50.948;11.600;2022-07-29T02:10:11;9.03;;;2.73;;
18881;SDS011;9573;50.948;11.600;2022-07-29T02:12:39;8.37;;;2.50;;
18881;SDS011;9573;50.948;11.600;2022-07-29T02:15:10;6.77;;;2.43;;
18881;SDS011;9573;50.948;11.600;2022-07-29T02:17:40;6.80;;;2.53;;
18881;SDS011;9573;50.948;11.600;2022-07-29T02:20:10;9.30;;;2.47;;
18881;SDS011;9573;50.948;11.600;2022-07-29T02:22:39;6.37;;;2.40;;
18881;SDS011;9573;50.948;11.600;2022-07-29T02:25:07;8.67;;;2.70;;
18881;SDS011;9573;50.948;11.600;2022-07-29T02:27:36;8.13;;;2.60;;
18881;SDS011;9573;50.948;11.600;2022-07-29T02:30:06;10.60;;;2.40;;
18881;SDS011;9573;50.948;11.600;2022-07-29T02:32:37;10.20;;;2.40;;
18881;SDS011;9573;50.948;11.600;2022-07-29T02:35:08;12.27;;;2.70;;
18881;SDS011;9573;50.948;11.600;2022-07-29T02:37:36;15.20;;;2.90;;
18881;SDS011;9573;50.948;11.600;2022-07-29T02:40:05;8.20;;;2.90;;
18881;SDS011;9573;50.948;11.600;2022-07-29T02:42:37;11.73;;;2.77;;
18881;SDS011;9573;50.948;11.600;2022-07-29T02:45:08;10.53;;;2.70;;
18881;SDS011;9573;50.948;11.600;2022-07-29T02:47:39;6.43;;;2.50;;
18881;SDS011;9573;50.948;11.600;2022-07-29T02:50:11;10.53;;;2.80;;
18881;SDS011;9573;50.948;11.600;2022-07-29T02:52:43;11.43;;;2.60;;
18881;SDS011;9573;50.948;11.600;2022-07-29T02:55:15;10.07;;;2.53;;
18881;SDS011;9573;50.948;11.600;2022-07-29T02:57:49;8.60;;;2.80;;
18881;SDS011;9573;50.948;11.600;2022-07-29T03:00:23;10.93;;;2.80;;
18881;SDS011;9573;50.948;11.600;2022-07-29T03:02:56;11.90;;;3.50;;
18881;SDS011;9573;50.948;11.600;2022-07-29T03:05:26;11.60;;;2.80;;
18881;SDS011;9573;50.948;11.600;2022-07-29T03:07:54;9.40;;;2.60;;
18881;SDS011;9573;50.948;11.600;2022-07-29T03:10:27;11.10;;;2.80;;
18881;SDS011;9573;50.948;11.600;2022-07-29T03:12:54;10.90;;;2.50;;
18881;SDS011;9573;50.948;11.600;2022-07-29T03:15:23;16.80;;;3.10;;
18881;SDS011;9573;50.948;11.600;2022-07-29T03:17:50;10.13;;;2.73;;
18881;SDS011;9573;50.948;11.600;2022-07-29T03:20:20;9.73;;;2.80;;
18881;SDS011;9573;50.948;11.600;2022-07-29T03:22:48;12.53;;;2.90;;
18881;SDS011;9573;50.948;11.600;2022-07-29T03:25:16;12.77;;;2.70;;
18881;SDS011;9573;50.948;11.600;2022-07-29T03:27:44;13.70;;;2.60;;
18881;SDS011;9573;50.948;11.600;2022-07-29T03:30:13;7.17;;;2.50;;
18881;SDS011;9573;50.948;11.600;2022-07-29T03:32:41;21.03;;;3.23;;
18881;SDS011;9573;50.948;11.600;2022-07-29T03:35:08;8.67;;;3.03;;
18881;SDS011;9573;50.948;11.600;2022-07-29T03:37:36;11.97;;;2.90;;
18881;SDS011;9573;50.948;11.600;2022-07-29T03:40:05;7.47;;;2.70;;
18881;SDS011;9573;50.948;11.600;2022-07-29T03:42:35;10.43;;;3.03;;
18881;SDS011;9573;50.948;11.600;2022-07-29T03:45:07;6.27;;;2.50;;
18881;SDS011;9573;50.948;11.600;2022-07-29T03:47:37;9.27;;;2.80;;
18881;SDS011;9573;50.948;11.600;2022-07-29T03:50:10;11.40;;;2.90;;
18881;SDS011;9573;50.948;11.600;2022-07-29T03:52:42;9.27;;;2.70;;
18881;SDS011;9573;50.948;11.600;2022-07-29T03:55:09;8.60;;;2.47;;
18881;SDS011;9573;50.948;11.600;2022-07-29T03:57:36;10.43;;;3.00;;
18881;SDS011;9573;50.948;11.600;2022-07-29T04:00:06;13.60;;;3.60;;
18881;SDS011;9573;50.948;11.600;2022-07-29T04:02:34;11.20;;;2.90;;
18881;SDS011;9573;50.948;11.600;2022-07-29T04:05:02;12.17;;;2.93;;
18881;SDS011;9573;50.948;11.600;2022-07-29T04:07:30;11.33;;;2.87;;
18881;SDS011;9573;50.948;11.600;2022-07-29T04:09:59;11.07;;;2.70;;
18881;SDS011;9573;50.948;11.600;2022-07-29T04:12:26;6.83;;;2.80;;
18881;SDS011;9573;50.948;11.600;2022-07-29T04:14:53;16.10;;;2.83;;
18881;SDS011;9573;50.948;11.600;2022-07-29T04:17:20;12.80;;;2.87;;
18881;SDS011;9573;50.948;11.600;2022-07-29T04:19:47;14.93;;;3.10;;
18881;SDS011;9573;50.948;11.600;2022-07-29T04:22:14;8.47;;;2.77;;
18881;SDS011;9573;50.948;11.600;2022-07-29T04:24:41;11.43;;;2.70;;
18881;SDS011;9573;50.948;11.600;2022-07-29T04:27:10;13.43;;;3.00;;
18881;SDS011;9573;50.948;11.600;2022-07-29T04:29:37;9.83;;;2.80;;
18881;SDS011;9573;50.948;11.600;2022-07-29T04:32:04;12.57;;;2.97;;
18881;SDS011;9573;50.948;11.600;2022-07-29T04:34:32;13.73;;;2.70;;
18881;SDS011;9573;50.948;11.600;2022-07-29T04:36:59;8.60;;;2.70;;
18881;SDS011;9573;50.948;11.600;2022-07-29T04:39:26;8.23;;;2.97;;
18881;SDS011;9573;50.948;11.600;2022-07-29T04:41:53;8.17;;;3.00;;
18881;SDS011;9573;50.948;11.600;2022-07-29T04:44:22;8.17;;;2.60;;
18881;SDS011;9573;50.948;11.600;2022-07-29T04:46:49;12.50;;;3.23;;
18881;SDS011;9573;50.948;11.600;2022-07-29T04:49:16;8.93;;;2.80;;
18881;SDS011;9573;50.948;11.600;2022-07-29T04:51:43;8.17;;;2.80;;
18881;SDS011;9573;50.948;11.600;2022-07-29T04:54:10;12.73;;;3.00;;
18881;SDS011;9573;50.948;11.600;2022-07-29T04:56:37;7.17;;;2.70;;
18881;SDS011;9573;50.948;11.600;2022-07-29T04:59:04;14.00;;;2.93;;
18881;SDS011;9573;50.948;11.600;2022-07-29T05:01:33;14.23;;;3.03;;
18881;SDS011;9573;50.948;11.600;2022-07-29T05:04:00;11.97;;;2.80;;
18881;SDS011;9573;50.948;11.600;2022-07-29T05:06:27;7.60;;;2.87;;
18881;SDS011;9573;50.948;11.600;2022-07-29T05:08:54;10.63;;;2.70;;
18881;SDS011;9573;50.948;11.600;2022-07-29T05:11:21;8.77;;;2.80;;
18881;SDS011;9573;50.948;11.600;2022-07-29T05:13:48;14.70;;;3.10;;
18881;SDS011;9573;50.948;11.600;2022-07-29T05:16:16;10.43;;;2.97;;
18881;SDS011;9573;50.948;11.600;2022-07-29T05:18:44;14.63;;;3.17;;
18881;SDS011;9573;50.948;11.600;2022-07-29T05:21:11;11.60;;;2.83;;
18881;SDS011;9573;50.948;11.600;2022-07-29T05:23:38;14.63;;;3.10;;
18881;SDS011;9573;50.948;11.600;2022-07-29T05:26:05;19.50;;;3.17;;
18881;SDS011;9573;50.948;11.600;2022-07-29T05:28:33;6.20;;;2.60;;
18881;SDS011;9573;50.948;11.600;2022-07-29T05:31:00;9.97;;;3.67;;
18881;SDS011;9573;50.948;11.600;2022-07-29T05:33:27;13.70;;;3.20;;
18881;SDS011;9573;50.948;11.600;2022-07-29T05:35:55;14.43;;;3.00;;
18881;SDS011;9573;50.948;11.600;2022-07-29T05:38:23;14.53;;;3.00;;
18881;SDS011;9573;50.948;11.600;2022-07-29T05:40:50;14.30;;;2.83;;
18881;SDS011;9573;50.948;11.600;2022-07-29T05:43:17;10.53;;;3.07;;
18881;SDS011;9573;50.948;11.600;2022-07-29T05:45:45;12.90;;;2.90;;
18881;SDS011;9573;50.948;11.600;2022-07-29T05:48:13;11.93;;;3.27;;
18881;SDS011;9573;50.948;11.600;2022-07-29T05:50:40;20.33;;;3.90;;
18881;SDS011;9573;50.948;11.600;2022-07-29T05:53:08;13.77;;;3.20;;
18881;SDS011;9573;50.948;11.600;2022-07-29T05:55:35;11.53;;;3.00;;
18881;SDS011;9573;50.948;11.600;2022-07-29T05:58:02;16.27;;;3.30;;
18881;SDS011;9573;50.948;11.600;2022-07-29T06:00:30;10.30;;;2.90;;
18881;SDS011;9573;50.948;11.600;2022-07-29T06:02:57;14.13;;;3.13;;
18881;SDS011;9573;50.948;11.600;2022-07-29T06:05:24;14.37;;;3.10;;
18881;SDS011;9573;50.948;11.600;2022-07-29T06:07:51;12.60;;;3.30;;
18881;SDS011;9573;50.948;11.600;2022-07-29T06:10:20;13.67;;;3.10;;
18881;SDS011;9573;50.948;11.600;2022-07-29T06:12:47;11.77;;;3.17;;
18881;SDS011;9573;50.948;11.600;2022-07-29T06:15:14;16.33;;;3.20;;
18881;SDS011;9573;50.948;11.600;2022-07-29T06:17:42;12.67;;;2.80;;
18881;SDS011;9573;50.948;11.600;2022-07-29T06:20:10;11.33;;;2.83;;
18881;SDS011;9573;50.948;11.600;2022-07-29T06:22:37;9.47;;;2.70;;
18881;SDS011;9573;50.948;11.600;2022-07-29T06:25:05;10.57;;;2.87;;
18881;SDS011;9573;50.948;11.600;2022-07-29T06:27:34;11.23;;;2.67;;
18881;SDS011;9573;50.948;11.600;2022-07-29T06:30:01;11.77;;;2.85;;
18881;SDS011;9573;50.948;11.600;2022-07-29T06:32:31;9.70;;;2.60;;
18881;SDS011;9573;50.948;11.600;2022-07-29T06:34:58;11.90;;;3.10;;
18881;SDS011;9573;50.948;11.600;2022-07-29T06:37:26;9.73;;;3.05;;
18881;SDS011;9573;50.948;11.600;2022-07-29T06:39:53;11.10;;;2.60;;
18881;SDS011;9573;50.948;11.600;2022-07-29T06:42:35;11.95;;;2.58;;
18881;SDS011;9573;50.948;11.600;2022-07-29T06:45:03;13.85;;;2.90;;
18881;SDS011;9573;50.948;11.600;2022-07-29T06:47:30;11.93;;;3.13;;
18881;SDS011;9573;50.948;11.600;2022-07-29T06:49:57;15.18;;;4.93;;
18881;SDS011;9573;50.948;11.600;2022-07-29T06:52:24;8.50;;;2.70;;
18881;SDS011;9573;50.948;11.600;2022-07-29T06:54:52;10.63;;;2.70;;
18881;SDS011;9573;50.948;11.600;2022-07-29T06:57:20;15.13;;;3.72;;
18881;SDS011;9573;50.948;11.600;2022-07-29T06:59:48;11.82;;;2.95;;
18881;SDS011;9573;50.948;11.600;2022-07-29T07:02:15;9.63;;;3.00;;
18881;SDS011;9573;50.948;11.600;2022-07-29T07:04:42;10.32;;;3.33;;
18881;SDS011;9573;50.948;11.600;2022-07-29T07:07:09;15.07;;;3.50;;
18881;SDS011;9573;50.948;11.600;2022-07-29T07:09:37;11.27;;;3.20;;
18881;SDS011;9573;50.948;11.600;2022-07-29T07:12:04;8.10;;;3.40;;
18881;SDS011;9573;50.948;11.600;2022-07-29T07:14:32;9.90;;;3.10;;
18881;SDS011;9573;50.948;11.600;2022-07-29T07:17:00;10.43;;;3.30;;
18881;SDS011;9573;50.948;11.600;2022-07-29T07:19:28;13.43;;;3.20;;
18881;SDS011;9573;50.948;11.600;2022-07-29T07:21:56;9.77;;;3.35;;
18881;SDS011;9573;50.948;11.600;2022-07-29T07:24:23;8.80;;;3.30;;
18881;SDS011;9573;50.948;11.600;2022-07-29T07:26:50;18.20;;;3.60;;
18881;SDS011;9573;50.948;11.600;2022-07-29T07:29:17;10.18;;;3.22;;
18881;SDS011;9573;50.948;11.600;2022-07-29T07:31:45;9.55;;;3.40;;
18881;SDS011;9573;50.948;11.600;2022-07-29T07:34:14;18.13;;;3.53;;
18881;SDS011;9573;50.948;11.600;2022-07-29T07:36:41;13.57;;;3.53;;
18881;SDS011;9573;50.948;11.600;2022-07-29T07:39:08;15.55;;;3.92;;
18881;SDS011;9573;50.948;11.600;2022-07-29T07:41:35;17.73;;;3.53;;
18881;SDS011;9573;50.948;11.600;2022-07-29T07:44:02;12.30;;;3.38;;
18881;SDS011;9573;50.948;11.600;2022-07-29T07:46:30;12.45;;;3.47;;
18881;SDS011;9573;50.948;11.600;2022-07-29T07:48:57;12.23;;;3.58;;
18881;SDS011;9573;50.948;11.600;2022-07-29T07:51:25;10.60;;;3.15;;
18881;SDS011;9573;50.948;11.600;2022-07-29T07:53:53;14.10;;;3.67;;
18881;SDS011;9573;50.948;11.600;2022-07-29T07:56:20;6.05;;;3.00;;
18881;SDS011;9573;50.948;11.600;2022-07-29T07:58:47;10.93;;;3.40;;
18881;SDS011;9573;50.948;11.600;2022-07-29T08:01:14;16.92;;;3.60;;
18881;SDS011;9573;50.948;11.600;2022-07-29T08:03:43;13.35;;;3.40;;
18881;SDS011;9573;50.948;11.600;2022-07-29T08:06:11;9.30;;;3.20;;
18881;SDS011;9573;50.948;11.600;2022-07-29T08:08:39;12.63;;;3.17;;
18881;SDS011;9573;50.948;11.600;2022-07-29T08:11:06;11.55;;;3.22;;
18881;SDS011;9573;50.948;11.600;2022-07-29T08:13:33;13.80;;;3.20;;
18881;SDS011;9573;50.948;11.600;2022-07-29T08:16:01;15.07;;;3.30;;
18881;SDS011;9573;50.948;11.600;2022-07-29T08:18:36;10.38;;;3.30;;
18881;SDS011;9573;50.948;11.600;2022-07-29T08:21:06;8.20;;;3.13;;
18881;SDS011;9573;50.948;11.600;2022-07-29T08:23:34;11.10;;;3.03;;
18881;SDS011;9573;50.948;11.600;2022-07-29T08:26:05;17.20;;;3.20;;
18881;SDS011;9573;50.948;11.600;2022-07-29T08:28:35;14.48;;;3.40;;
18881;SDS011;9573;50.948;11.600;2022-07-29T08:31:03;10.30;;;3.20;;
18881;SDS011;9573;50.948;11.600;2022-07-29T08:33:30;11.40;;;3.35;;
18881;SDS011;9573;50.948;11.600;2022-07-29T08:35:58;13.00;;;3.45;;
18881;SDS011;9573;50.948;11.600;2022-07-29T08:38:25;6.80;;;2.83;;
18881;SDS011;9573;50.948;11.600;2022-07-29T08:40:52;11.70;;;3.28;;
18881;SDS011;9573;50.948;11.600;2022-07-29T08:43:21;18.80;;;3.65;;
18881;SDS011;9573;50.948;11.600;2022-07-29T08:45:49;11.15;;;3.22;;
18881;SDS011;9573;50.948;11.600;2022-07-29T08:48:18;7.60;;;3.05;;
18881;SDS011;9573;50.948;11.600;2022-07-29T08:50:47;11.75;;;3.30;;
18881;SDS011;9573;50.948;11.600;2022-07-29T08:53:19;13.25;;;3.08;;
18881;SDS011;9573;50.948;11.600;2022-07-29T08:55:48;12.20;;;3.10;;
18881;SDS011;9573;50.948;11.600;2022-07-29T08:58:16;14.52;;;2.85;;
18881;SDS011;9573;50.948;11.600;2022-07-29T09:00:52;9.57;;;3.08;;
18881;SDS011;9573;50.948;11.600;2022-07-29T09:03:22;12.40;;;3.00;;
18881;SDS011;9573;50.948;11.600;2022-07-29T09:05:51;16.20;;;3.58;;
18881;SDS011;9573;50.948;11.600;2022-07-29T09:08:19;14.75;;;2.97;;
18881;SDS011;9573;50.948;11.600;2022-07-29T09:10:46;14.02;;;3.00;;
18881;SDS011;9573;50.948;11.600;2022-07-29T09:13:14;19.50;;;3.17;;
18881;SDS011;9573;50.948;11.600;2022-07-29T09:15:41;13.23;;;2.75;;
18881;SDS011;9573;50.948;11.600;2022-07-29T09:18:09;11.25;;;3.00;;
18881;SDS011;9573;50.948;11.600;2022-07-29T09:20:37;15.60;;;3.00;;
18881;SDS011;9573;50.948;11.600;2022-07-29T09:23:22;7.07;;;2.80;;
18881;SDS011;9573;50.948;11.600;2022-07-29T09:25:49;11.63;;;2.90;;
18881;SDS011;9573;50.948;11.600;2022-07-29T09:28:17;11.75;;;3.00;;
18881;SDS011;9573;50.948;11.600;2022-07-29T09:30:51;11.88;;;3.17;;
18881;SDS011;9573;50.948;11.600;2022-07-29T09:33:22;16.58;;;2.95;;
18881;SDS011;9573;50.948;11.600;2022-07-29T09:35:58;11.55;;;3.08;;
18881;SDS011;9573;50.948;11.600;2022-07-29T09:38:30;13.40;;;2.80;;
18881;SDS011;9573;50.948;11.600;2022-07-29T09:40:57;10.63;;;2.90;;
18881;SDS011;9573;50.948;11.600;2022-07-29T09:43:26;10.80;;;2.83;;
18881;SDS011;9573;50.948;11.600;2022-07-29T09:45:54;10.98;;;2.90;;
18881;SDS011;9573;50.948;11.600;2022-07-29T09:48:23;16.00;;;2.85;;
18881;SDS011;9573;50.948;11.600;2022-07-29T09:50:51;7.75;;;2.70;;
18881;SDS011;9573;50.948;11.600;2022-07-29T09:53:29;8.32;;;2.88;;
18881;SDS011;9573;50.948;11.600;2022-07-29T09:55:58;14.13;;;3.38;;
18881;SDS011;9573;50.948;11.600;2022-07-29T09:58:26;10.20;;;2.97;;
18881;SDS011;9573;50.948;11.600;2022-07-29T10:00:53;9.50;;;2.70;;
18881;SDS011;9573;50.948;11.600;2022-07-29T10:03:22;13.40;;;2.95;;
18881;SDS011;9573;50.948;11.600;2022-07-29T10:06:03;16.20;;;3.15;;
18881;SDS011;9573;50.948;11.600;2022-07-29T10:08:33;13.68;;;2.90;;
18881;SDS011;9573;50.948;11.600;2022-07-29T10:11:08;13.57;;;2.70;;
18881;SDS011;9573;50.948;11.600;2022-07-29T10:13:37;12.10;;;3.30;;
18881;SDS011;9573;50.948;11.600;2022-07-29T10:16:05;13.13;;;3.22;;
18881;SDS011;9573;50.948;11.600;2022-07-29T10:18:34;8.27;;;2.80;;
18881;SDS011;9573;50.948;11.600;2022-07-29T10:21:04;17.02;;;3.35;;
18881;SDS011;9573;50.948;11.600;2022-07-29T10:23:31;16.05;;;3.35;;
18881;SDS011;9573;50.948;11.600;2022-07-29T10:26:00;12.10;;;3.30;;
18881;SDS011;9573;50.948;11.600;2022-07-29T10:28:29;14.95;;;3.20;;
18881;SDS011;9573;50.948;11.600;2022-07-29T10:30:58;12.02;;;3.65;;
18881;SDS011;9573;50.948;11.600;2022-07-29T10:33:36;14.00;;;3.38;;
18881;SDS011;9573;50.948;11.600;2022-07-29T10:39:12;10.90;;;3.42;;
18881;SDS011;9573;50.948;11.600;2022-07-29T10:41:56;12.90;;;3.42;;
18881;SDS011;9573;50.948;11.600;2022-07-29T10:44:34;15.25;;;3.30;;
18881;SDS011;9573;50.948;11.600;2022-07-29T10:47:06;17.80;;;3.40;;
18881;SDS011;9573;50.948;11.600;2022-07-29T10:49:34;21.52;;;3.30;;
18881;SDS011;9573;50.948;11.600;2022-07-29T10:52:05;18.23;;;3.33;;
18881;SDS011;9573;50.948;11.600;2022-07-29T10:54:44;13.88;;;3.38;;
18881;SDS011;9573;50.948;11.600;2022-07-29T10:57:21;17.98;;;3.88;;
18881;SDS011;9573;50.948;11.600;2022-07-29T11:02:57;11.15;;;3.42;;
18881;SDS011;9573;50.948;11.600;2022-07-29T11:05:27;15.07;;;3.50;;
18881;SDS011;9573;50.948;11.600;2022-07-29T11:14:05;10.35;;;3.50;;
18881;SDS011;9573;50.948;11.600;2022-07-29T11:19:32;12.25;;;3.15;;
18881;SDS011;9573;50.948;11.600;2022-07-29T11:22:02;11.18;;;3.10;;
18881;SDS011;9573;50.948;11.600;2022-07-29T11:24:34;17.75;;;3.67;;
18881;SDS011;9573;50.948;11.600;2022-07-29T11:27:14;12.85;;;3.10;;
18881;SDS011;9573;50.948;11.600;2022-07-29T11:29:50;10.48;;;2.90;;
18881;SDS011;9573;50.948;11.600;2022-07-29T11:32:20;12.95;;;2.80;;
18881;SDS011;9573;50.948;11.600;2022-07-29T11:34:49;11.35;;;3.35;;
18881;SDS011;9573;50.948;11.600;2022-07-29T11:37:41;9.02;;;3.20;;
18881;SDS011;9573;50.948;11.600;2022-07-29T11:40:15;12.45;;;3.30;;
18881;SDS011;9573;50.948;11.600;2022-07-29T11:42:47;13.13;;;3.00;;
18881;SDS011;9573;50.948;11.600;2022-07-29T11:45:18;10.15;;;3.28;;
18881;SDS011;9573;50.948;11.600;2022-07-29T11:47:52;12.52;;;3.10;;
18881;SDS011;9573;50.948;11.600;2022-07-29T11:50:30;10.07;;;3.08;;
18881;SDS011;9573;50.948;11.600;2022-07-29T11:53:02;8.50;;;3.10;;
18881;SDS011;9573;50.948;11.600;2022-07-29T11:55:37;9.02;;;3.00;;
18881;SDS011;9573;50.948;11.600;2022-07-29T11:58:06;9.05;;;3.03;;
18881;SDS011;9573;50.948;11.600;2022-07-29T12:00:34;13.82;;;3.40;;
18881;SDS011;9573;50.948;11.600;2022-07-29T12:03:04;8.85;;;3.00;;
18881;SDS011;9573;50.948;11.600;2022-07-29T12:05:37;13.07;;;3.05;;
18881;SDS011;9573;50.948;11.600;2022-07-29T12:08:09;12.55;;;3.00;;
18881;SDS011;9573;50.948;11.600;2022-07-29T12:10:39;10.50;;;3.20;;
18881;SDS011;9573;50.948;11.600;2022-07-29T12:13:08;8.40;;;3.15;;
18881;SDS011;9573;50.948;11.600;2022-07-29T12:15:36;14.02;;;3.35;;
18881;SDS011;9573;50.948;11.600;2022-07-29T12:18:13;13.55;;;3.50;;
18881;SDS011;9573;50.948;11.600;2022-07-29T12:20:41;11.68;;;3.47;;
18881;SDS011;9573;50.948;11.600;2022-07-29T12:23:11;11.43;;;3.47;;
18881;SDS011;9573;50.948;11.600;2022-07-29T12:25:39;7.88;;;3.15;;
18881;SDS011;9573;50.948;11.600;2022-07-29T12:28:09;11.98;;;3.30;;
18881;SDS011;9573;50.948;11.600;2022-07-29T12:30:39;10.38;;;3.53;;
18881;SDS011;9573;50.948;11.600;2022-07-29T12:33:17;17.65;;;3.83;;
18881;SDS011;9573;50.948;11.600;2022-07-29T12:35:47;14.05;;;4.00;;
18881;SDS011;9573;50.948;11.600;2022-07-29T12:38:18;13.25;;;3.40;;
18881;SDS011;9573;50.948;11.600;2022-07-29T12:40:46;12.50;;;3.60;;
18881;SDS011;9573;50.948;11.600;2022-07-29T12:43:16;10.60;;;3.80;;
18881;SDS011;9573;50.948;11.600;2022-07-29T12:45:45;8.57;;;3.20;;
18881;SDS011;9573;50.948;11.600;2022-07-29T12:48:15;10.63;;;3.13;;
18881;SDS011;9573;50.948;11.600;2022-07-29T12:50:52;10.73;;;3.60;;
18881;SDS011;9573;50.948;11.600;2022-07-29T12:53:22;13.35;;;3.50;;
18881;SDS011;9573;50.948;11.600;2022-07-29T12:55:50;12.70;;;3.67;;
18881;SDS011;9573;50.948;11.600;2022-07-29T12:58:26;14.70;;;3.60;;
18881;SDS011;9573;50.948;11.600;2022-07-29T13:01:08;13.88;;;3.58;;
18881;SDS011;9573;50.948;11.600;2022-07-29T13:03:41;12.90;;;3.65;;
18881;SDS011;9573;50.948;11.600;2022-07-29T13:06:33;19.73;;;3.80;;
18881;SDS011;9573;50.948;11.600;2022-07-29T13:09:08;13.52;;;4.15;;
18881;SDS011;9573;50.948;11.600;2022-07-29T13:11:38;14.98;;;3.50;;
18881;SDS011;9573;50.948;11.600;2022-07-29T13:14:07;11.75;;;3.40;;
18881;SDS011;9573;50.948;11.600;2022-07-29T13:16:36;17.88;;;3.90;;
18881;SDS011;9573;50.948;11.600;2022-07-29T13:19:37;15.85;;;3.78;;
18881;SDS011;9573;50.948;11.600;2022-07-29T13:22:07;11.63;;;4.00;;
18881;SDS011;9573;50.948;11.600;2022-07-29T13:24:46;13.63;;;3.90;;
18881;SDS011;9573;50.948;11.600;2022-07-29T13:27:15;12.23;;;4.00;;
18881;SDS011;9573;50.948;11.600;2022-07-29T13:29:42;13.25;;;4.13;;
18881;SDS011;9573;50.948;11.600;2022-07-29T13:32:10;16.17;;;4.28;;
18881;SDS011;9573;50.948;11.600;2022-07-29T13:34:38;14.23;;;4.10;;
18881;SDS011;9573;50.948;11.600;2022-07-29T13:37:05;19.70;;;3.90;;
18881;SDS011;9573;50.948;11.600;2022-07-29T13:39:32;14.75;;;4.20;;
18881;SDS011;9573;50.948;11.600;2022-07-29T13:42:01;14.65;;;4.18;;
18881;SDS011;9573;50.948;11.600;2022-07-29T13:44:28;14.43;;;4.30;;
18881;SDS011;9573;50.948;11.600;2022-07-29T13:46:56;15.15;;;4.13;;
18881;SDS011;9573;50.948;11.600;2022-07-29T13:49:23;19.52;;;4.63;;
18881;SDS011;9573;50.948;11.600;2022-07-29T13:51:51;13.07;;;3.90;;
18881;SDS011;9573;50.948;11.600;2022-07-29T13:54:18;14.98;;;3.92;;
18881;SDS011;9573;50.948;11.600;2022-07-29T13:56:45;18.73;;;4.13;;
18881;SDS011;9573;50.948;11.600;2022-07-29T13:59:14;14.73;;;4.13;;
18881;SDS011;9573;50.948;11.600;2022-07-29T14:01:41;13.98;;;4.05;;
18881;SDS011;9573;50.948;11.600;2022-07-29T14:04:09;12.65;;;3.80;;
18881;SDS011;9573;50.948;11.600;2022-07-29T14:06:37;14.07;;;4.20;;
18881;SDS011;9573;50.948;11.600;2022-07-29T14:09:04;8.05;;;3.55;;
18881;SDS011;9573;50.948;11.600;2022-07-29T14:11:33;10.15;;;3.90;;
18881;SDS011;9573;50.948;11.600;2022-07-29T14:14:00;12.07;;;3.72;;
18881;SDS011;9573;50.948;11.600;2022-07-29T14:16:29;12.05;;;4.13;;
18881;SDS011;9573;50.948;11.600;2022-07-29T14:18:56;13.05;;;3.63;;
18881;SDS011;9573;50.948;11.600;2022-07-29T14:21:23;8.90;;;3.63;;
18881;SDS011;9573;50.948;11.600;2022-07-29T14:23:51;10.40;;;3.85;;
18881;SDS011;9573;50.948;11.600;2022-07-29T14:26:19;8.77;;;3.80;;
18881;SDS011;9573;50.948;11.600;2022-07-29T14:28:47;12.60;;;3.90;;
18881;SDS011;9573;50.948;11.600;2022-07-29T14:31:14;6.53;;;3.60;;
18881;SDS011;9573;50.948;11.600;2022-07-29T14:33:43;11.95;;;3.65;;
18881;SDS011;9573;50.948;11.600;2022-07-29T14:36:10;10.68;;;3.85;;
18881;SDS011;9573;50.948;11.600;2022-07-29T14:38:37;11.20;;;3.78;;
18881;SDS011;9573;50.948;11.600;2022-07-29T14:41:05;8.40;;;3.67;;
18881;SDS011;9573;50.948;11.600;2022-07-29T14:43:33;14.65;;;3.92;;
18881;SDS011;9573;50.948;11.600;2022-07-29T14:46:00;7.95;;;4.10;;
18881;SDS011;9573;50.948;11.600;2022-07-29T14:48:28;7.63;;;3.78;;
18881;SDS011;9573;50.948;11.600;2022-07-29T14:50:56;12.27;;;3.90;;
18881;SDS011;9573;50.948;11.600;2022-07-29T14:53:24;12.02;;;3.97;;
18881;SDS011;9573;50.948;11.600;2022-07-29T14:55:51;6.18;;;3.85;;
18881;SDS011;9573;50.948;11.600;2022-07-29T14:58:18;8.50;;;4.10;;
18881;SDS011;9573;50.948;11.600;2022-07-29T15:00:47;9.80;;;4.25;;
18881;SDS011;9573;50.948;11.600;2022-07-29T15:03:14;11.52;;;4.00;;
18881;SDS011;9573;50.948;11.600;2022-07-29T15:05:41;10.85;;;3.70;;
18881;SDS011;9573;50.948;11.600;2022-07-29T15:08:10;7.75;;;3.90;;